Humidity-temperature Sensor

Selected Measurement Type: Air Temperature

 
Air Temperature [°C]     6 entries per hour
Showing data from 6/8/2022 (00:00:00 Z) to 6/7/2022 (00:01:00 Z)
Previous Next [ Day | 3-Days | 7-Days ]
First Last
Prev [ Day | 3-Days | 7-Days ] Next
First Last

Start Time:     :
End Time:     :     
Time (in GMT) :00 :50 :40 :30 :20 :10
Previous Next [ Day | 3-Days | 7-Days ]
First Last
Prev [ Day | 3-Days | 7-Days ] Next
First Last


123 => good data
MM => data is determined as missing
-- => data not received/configured
Back to Top Back to Top
6/8/2022 00:00 to 23:10 26.00 26.10 26.29 26.01 26.01 26.21
6/7/2022 23:00 to 22:10 26.11 26.20 26.22 26.19 25.98 26.01
6/7/2022 22:00 to 21:10 26.03 26.30 26.18 26.18 26.16 26.02
6/7/2022 21:00 to 20:10 26.12 26.30 26.28 26.21 26.25 25.98
6/7/2022 20:00 to 19:10 26.08 26.23 26.16 26.17 26.13 26.11
6/7/2022 19:00 to 18:10 26.12 26.03 26.26 26.02 26.12 26.14
6/7/2022 18:00 to 17:10 26.09 26.10 25.98 25.93 26.06 26.16
6/7/2022 17:00 to 16:10 25.89 26.08 26.18 26.09 26.05 26.09
6/7/2022 16:00 to 15:10 26.04 26.04 26.01 26.12 26.30 26.13
6/7/2022 15:00 to 14:10 26.23 26.27 26.34 26.07 26.23 26.19
6/7/2022 14:00 to 13:10 26.16 26.27 26.07 26.00 26.05 26.02
6/7/2022 13:00 to 12:10 25.92 26.20 25.90 26.08 25.83 26.07
6/7/2022 12:00 to 11:10 25.90 25.89 25.93 25.92 25.92 26.02
6/7/2022 11:00 to 10:10 25.81 25.82 25.87 26.00 25.87 25.87
6/7/2022 10:00 to 9:10 25.90 25.74 25.82 26.03 25.81 25.89
6/7/2022 09:00 to 8:10 26.02 25.87 26.07 25.96 26.02 26.19
6/7/2022 08:00 to 7:10 25.90 25.78 25.96 26.10 26.08 25.94
6/7/2022 07:00 to 6:10 26.02 26.03 26.16 26.09 25.89 25.89
6/7/2022 06:00 to 5:10 25.97 26.11 25.85 25.87 26.03 26.07
6/7/2022 05:00 to 4:10 26.20 25.98 26.08 26.17 26.13 26.09
6/7/2022 04:00 to 3:10 26.38 26.42 26.43 26.40 26.49 26.18
6/7/2022 03:00 to 2:10 26.23 26.25 26.17 26.30 26.17 26.31
6/7/2022 02:00 to 1:10 26.16 25.99 26.06 26.08 25.98 26.08
6/7/2022 01:00 to 0:10 26.04 26.05 26.01 25.98 25.85 25.73